createdAt,value
2023-06-17T00:02:52.588Z,12.03
2023-06-17T00:07:56.221Z,11.95
2023-06-17T00:13:01.780Z,11.91
2023-06-17T00:18:08.834Z,11.86
2023-06-17T00:23:12.575Z,11.84
2023-06-17T00:28:16.249Z,11.81
2023-06-17T00:33:21.048Z,11.76
2023-06-17T00:38:24.530Z,11.69
2023-06-17T00:43:28.186Z,11.65
2023-06-17T00:48:33.468Z,11.62
2023-06-17T00:53:37.092Z,11.59
2023-06-17T00:58:40.672Z,11.57
2023-06-17T01:03:45.671Z,11.65
2023-06-17T01:08:58.768Z,11.78
2023-06-17T01:14:03.372Z,11.82
2023-06-17T01:19:19.455Z,11.93
2023-06-17T01:24:28.631Z,12.03
2023-06-17T01:29:33.943Z,11.98
2023-06-17T01:34:44.028Z,12.05
2023-06-17T01:39:52.244Z,12.04
2023-06-17T01:44:57.625Z,12.12
2023-06-17T01:50:02.232Z,12.16
2023-06-17T01:55:10.819Z,12.19
2023-06-17T02:00:15.450Z,12.39
2023-06-17T02:05:19.670Z,12.54
2023-06-17T02:10:24.603Z,12.72
2023-06-17T02:15:28.040Z,12.89
2023-06-17T02:20:31.655Z,13.08
2023-06-17T02:25:38.003Z,13.31
2023-06-17T02:30:41.536Z,13.58
2023-06-17T02:35:45.884Z,13.75
2023-06-17T02:40:50.845Z,13.92
2023-06-17T02:45:54.433Z,14.09
2023-06-17T02:50:58.045Z,14.30
2023-06-17T02:56:03.284Z,14.51
2023-06-17T03:01:07.418Z,14.74
2023-06-17T03:06:11.070Z,15.00
2023-06-17T03:11:16.168Z,15.26
2023-06-17T03:16:19.863Z,15.55
2023-06-17T03:21:23.454Z,15.91
2023-06-17T03:26:29.080Z,16.29
2023-06-17T03:31:33.043Z,16.66
2023-06-17T03:36:36.672Z,17.01
2023-06-17T03:41:41.748Z,17.35
2023-06-17T03:46:45.301Z,17.63
2023-06-17T03:51:48.849Z,17.82
2023-06-17T03:56:53.752Z,17.92
2023-06-17T04:01:59.264Z,18.04
2023-06-17T04:07:03.499Z,18.19
2023-06-17T04:12:09.698Z,18.36
2023-06-17T04:17:13.187Z,18.51
2023-06-17T04:22:16.632Z,18.70
2023-06-17T04:27:21.657Z,18.92
2023-06-17T04:32:27.935Z,19.09
2023-06-17T04:37:31.739Z,19.31
2023-06-17T04:42:37.853Z,19.53
2023-06-17T04:47:41.683Z,19.73
2023-06-17T04:52:46.270Z,19.98
2023-06-17T04:57:51.531Z,20.22
2023-06-17T05:02:55.122Z,20.46
2023-06-17T05:07:58.592Z,20.69
2023-06-17T05:13:03.610Z,20.91
2023-06-17T05:18:07.282Z,21.12
2023-06-17T05:23:10.730Z,21.34
2023-06-17T05:28:15.569Z,21.56
2023-06-17T05:33:19.335Z,21.73
2023-06-17T05:38:22.874Z,21.98
2023-06-17T05:43:30.226Z,22.20
2023-06-17T05:48:33.676Z,22.44
2023-06-17T05:53:37.215Z,22.63
2023-06-17T05:58:42.147Z,22.92
2023-06-17T06:03:45.878Z,23.22
2023-06-17T06:08:49.499Z,23.41
2023-06-17T06:13:54.468Z,23.58
2023-06-17T06:18:57.926Z,23.87
2023-06-17T06:24:01.720Z,24.14
2023-06-17T06:29:08.718Z,24.38
2023-06-17T06:34:12.389Z,24.57
2023-06-17T06:39:15.715Z,24.85
2023-06-17T06:44:21.348Z,25.02
2023-06-17T06:49:24.814Z,25.27
2023-06-17T06:54:28.259Z,25.47
2023-06-17T06:59:33.754Z,25.70
2023-06-17T07:04:37.699Z,25.91
2023-06-17T07:09:41.314Z,26.11
2023-06-17T07:14:46.211Z,26.38
2023-06-17T07:19:49.770Z,26.62
2023-06-17T07:24:53.468Z,26.92
2023-06-17T07:29:58.429Z,27.11
2023-06-17T07:35:01.895Z,27.36
2023-06-17T07:40:07.666Z,27.64
2023-06-17T07:45:13.545Z,28.02
2023-06-17T07:50:17.064Z,28.59
2023-06-17T07:55:20.641Z,28.95
2023-06-17T08:00:25.665Z,29.63
2023-06-17T08:05:29.038Z,29.79
2023-06-17T08:10:32.692Z,29.92
2023-06-17T08:15:37.644Z,30.54
2023-06-17T08:20:41.128Z,31.11
2023-06-17T08:25:44.698Z,32.04
2023-06-17T08:30:50.577Z,32.57
2023-06-17T08:35:54.000Z,34.11
2023-06-17T08:40:57.648Z,34.07
2023-06-17T08:46:03.876Z,33.47
2023-06-17T08:51:07.803Z,33.26
2023-06-17T08:56:12.371Z,32.62
2023-06-17T09:01:17.465Z,34.51
2023-06-17T09:06:22.550Z,39.61
2023-06-17T09:11:28.556Z,42.96
2023-06-17T09:16:34.991Z,42.27
2023-06-17T09:21:39.166Z,44.24
2023-06-17T09:26:44.328Z,46.97
2023-06-17T09:31:53.973Z,48.63
2023-06-17T09:37:02.111Z,48.84
2023-06-17T09:42:10.378Z,44.43
2023-06-17T09:47:16.136Z,40.78
2023-06-17T09:52:21.830Z,38.77
2023-06-17T09:57:27.506Z,44.02
2023-06-17T10:02:33.041Z,48.39
2023-06-17T10:07:37.112Z,50.75
2023-06-17T10:12:48.180Z,49.00
2023-06-17T10:17:54.498Z,49.64
2023-06-17T10:22:58.337Z,51.17
2023-06-17T10:28:04.074Z,52.84
2023-06-17T10:33:09.583Z,54.74
2023-06-17T10:38:29.551Z,55.38
2023-06-17T10:43:38.811Z,53.56
2023-06-17T10:48:44.068Z,48.18
2023-06-17T10:53:50.124Z,49.50
2023-06-17T10:58:53.899Z,52.85
2023-06-17T11:04:01.211Z,55.40
2023-06-17T11:09:06.297Z,57.03
2023-06-17T11:14:09.756Z,53.85
2023-06-17T11:19:14.961Z,49.34
2023-06-17T11:24:18.548Z,45.90
2023-06-17T11:29:22.281Z,45.99
2023-06-17T11:34:32.654Z,42.35
2023-06-17T11:39:39.971Z,41.37
2023-06-17T11:44:44.006Z,46.32
2023-06-17T11:49:48.902Z,49.74
2023-06-17T11:54:53.390Z,50.47
2023-06-17T12:00:01.571Z,52.10
2023-06-17T12:05:08.227Z,53.08
2023-06-17T12:10:14.120Z,53.11
2023-06-17T12:15:18.114Z,54.43
2023-06-17T12:20:23.852Z,52.40
2023-06-17T12:25:27.352Z,46.34
2023-06-17T12:30:31.144Z,41.82
2023-06-17T12:35:36.585Z,38.89
2023-06-17T12:40:39.969Z,37.89
2023-06-17T12:45:44.090Z,37.09
2023-06-17T12:50:49.220Z,39.04
2023-06-17T12:55:53.457Z,39.68
2023-06-17T13:00:57.421Z,39.36
2023-06-17T13:06:02.337Z,37.77
2023-06-17T13:11:06.358Z,36.25
2023-06-17T13:16:10.041Z,35.68
2023-06-17T13:21:14.851Z,38.74
2023-06-17T13:26:19.830Z,42.59
2023-06-17T13:31:23.425Z,44.90
2023-06-17T13:36:28.586Z,46.34
2023-06-17T13:41:32.465Z,47.56
2023-06-17T13:46:36.410Z,48.00
2023-06-17T13:51:42.040Z,44.91
2023-06-17T13:56:45.558Z,42.47
2023-06-17T14:01:49.282Z,42.66
2023-06-17T14:06:55.858Z,41.83
2023-06-17T14:11:59.274Z,41.13
2023-06-17T14:17:02.840Z,41.34
2023-06-17T14:22:11.251Z,40.82
2023-06-17T14:27:47.942Z,41.13
2023-06-17T14:32:51.571Z,41.82
2023-06-17T14:37:56.921Z,41.64
2023-06-17T14:43:00.336Z,40.64
2023-06-17T14:48:05.765Z,39.24
2023-06-17T14:53:10.802Z,38.22
2023-06-17T14:58:14.357Z,38.21
2023-06-17T15:03:19.217Z,37.81
2023-06-17T15:08:26.813Z,35.69
2023-06-17T15:13:30.795Z,34.16
2023-06-17T15:18:36.315Z,35.39
2023-06-17T15:23:41.574Z,34.44
2023-06-17T15:28:45.117Z,32.67
2023-06-17T15:33:48.586Z,32.65
2023-06-17T15:38:53.535Z,32.41
2023-06-17T15:43:58.626Z,32.34
2023-06-17T15:49:02.104Z,32.43
2023-06-17T15:54:07.334Z,32.39
2023-06-17T15:59:11.066Z,31.91
2023-06-17T16:04:36.548Z,31.77
2023-06-17T16:09:43.801Z,31.42
2023-06-17T16:14:48.319Z,29.82
2023-06-17T16:19:51.873Z,28.35
2023-06-17T16:24:57.158Z,27.34
2023-06-17T16:30:00.807Z,26.67
2023-06-17T16:35:04.301Z,26.10
2023-06-17T16:40:11.106Z,25.66
2023-06-17T16:45:14.942Z,25.22
2023-06-17T16:50:18.646Z,24.81
2023-06-17T16:55:23.646Z,24.68
2023-06-17T17:00:28.716Z,24.57
2023-06-17T17:05:33.583Z,24.56
2023-06-17T17:10:38.363Z,24.31
2023-06-17T17:15:41.734Z,23.94
2023-06-17T17:20:46.496Z,23.60
2023-06-17T17:25:51.485Z,23.33
2023-06-17T23:28:09.161Z,13.07
